Anacostia, District of Columbia
Current Conditions -  °F | °C
As of 1:52 PM on Monday 20 Oct 2014 (Local Time) from KDCA Reporting Station
Overcast Overcast  
Wind Chill: 67°   Ceiling: 23000
Heat Index: 67°   Visibility: 10mi
Dew Point: 43°   Wind: 15mph
Humidity: 42%   Direction: 190°S
Pressure: 30"   Gusts: 21mph
Location:  38.8618°N, 77.0026°W
Report Text: KDCA 201752Z 19013G18KT 10SM FEW050 OVC230 19/06 A3000 RMK AO2 PK WND 20026/1716 SLP158 T01940061 10200 20083 58040
Loading
Personal Weather Stations






























Interactive Weather Map New forecast layout! Learn more

10-Day Weather Forecast

Advertisements
Track Severe Weather on mobile